Portada
METAR-TAF:

METAR-TAF

Aeroports :

Payerne, Suïssa

latitud: 46-49N, longitud: 006-57E, altitud: 490 m

Observació

L'informe es va fer fa 31 minuts, a les 23:20 UTC
Vent calma
Temperatura -1°C
Humitat 86%
Pressió 1027 hPa
Visibilitat 10 km o més

METAR: LSMP 182320Z AUTO 00000KT 9999NDV NCD M01/M03 Q1027 RMK

Hora: 00:51 (23:51 UTC)


TAF: manca

Observacions i pronòstics meteorològics de més de 4000 aeroports (METAR i TAF).

Les estacions disponibles són els punts grocs i vermells al mapa.

Posi el ratolí al punt desitjat per veure el nom de l'estació.

Feu clic per veure les observacions i els pronòstics meteorològics.

Per canviar el mapa: feu clic els botons verds amb una creu de color negre per apropar; al botó verd amb un guió per allunyar la imatge; o en les fletxes verdes per a mapes adjacents.


METAR-TAF: